createdAt,value
2018-06-11T00:00:13.896Z,22.88
2018-06-11T00:00:45.540Z,22.85
2018-06-11T00:01:17.112Z,22.88
2018-06-11T00:01:48.717Z,22.88
2018-06-11T00:02:20.288Z,22.88
2018-06-11T00:02:51.884Z,22.89
2018-06-11T00:03:23.661Z,22.91
2018-06-11T00:03:55.236Z,22.92
2018-06-11T00:04:26.813Z,22.93
2018-06-11T00:04:58.390Z,22.93
2018-06-11T00:05:29.960Z,22.93
2018-06-11T00:06:01.543Z,22.93
2018-06-11T00:06:33.142Z,22.93
2018-06-11T00:07:04.736Z,22.93
2018-06-11T00:07:36.345Z,22.92
2018-06-11T00:08:07.917Z,22.91
2018-06-11T00:08:39.560Z,22.89
2018-06-11T00:09:11.165Z,22.90
2018-06-11T00:09:42.749Z,22.90
2018-06-11T00:10:14.379Z,22.90
2018-06-11T00:10:46.014Z,22.90
2018-06-11T00:11:17.607Z,22.90
2018-06-11T00:11:49.194Z,22.90
2018-06-11T00:12:20.798Z,22.90
2018-06-11T00:12:52.382Z,22.88
2018-06-11T00:13:23.989Z,22.86
2018-06-11T00:13:55.570Z,22.84
2018-06-11T00:14:27.173Z,22.83
2018-06-11T00:14:58.777Z,22.83
2018-06-11T00:15:30.352Z,22.83
2018-06-11T00:16:01.987Z,22.83
2018-06-11T00:16:33.569Z,22.83
2018-06-11T00:17:05.173Z,22.83
2018-06-11T00:17:36.785Z,22.82
2018-06-11T00:18:08.388Z,22.81
2018-06-11T00:18:39.960Z,22.81
2018-06-11T00:19:11.551Z,22.81
2018-06-11T00:19:43.137Z,22.81
2018-06-11T00:20:14.718Z,22.81
2018-06-11T00:20:46.361Z,22.83
2018-06-11T00:21:17.956Z,22.83
2018-06-11T00:21:49.537Z,22.83
2018-06-11T00:22:21.147Z,22.83
2018-06-11T00:22:52.749Z,22.81
2018-06-11T00:23:24.348Z,22.79
2018-06-11T00:23:55.945Z,22.79
2018-06-11T00:24:27.558Z,22.79
2018-06-11T00:24:59.152Z,22.78
2018-06-11T00:25:30.757Z,22.78
2018-06-11T00:26:02.341Z,22.79
2018-06-11T00:26:33.909Z,22.80
2018-06-11T00:27:05.484Z,22.81
2018-06-11T00:27:37.138Z,22.80
2018-06-11T00:28:08.760Z,22.78
2018-06-11T00:28:40.331Z,22.77
2018-06-11T00:29:11.914Z,22.76
2018-06-11T00:29:43.487Z,22.72
2018-06-11T00:30:15.064Z,22.74
2018-06-11T00:30:46.632Z,22.73
2018-06-11T00:31:18.208Z,22.75
2018-06-11T00:31:49.790Z,22.76
2018-06-11T00:32:21.379Z,22.75
2018-06-11T00:32:52.975Z,22.76
2018-06-11T00:33:24.614Z,22.75
2018-06-11T00:33:56.225Z,22.74
2018-06-11T00:34:27.828Z,22.72
2018-06-11T00:34:59.434Z,22.72
2018-06-11T00:35:31.027Z,22.71
2018-06-11T00:36:02.628Z,22.70
2018-06-11T00:36:34.247Z,22.70
2018-06-11T00:37:05.854Z,22.66
2018-06-11T00:37:37.462Z,22.67
2018-06-11T00:38:09.049Z,22.65
2018-06-11T00:38:40.687Z,22.65
2018-06-11T00:39:12.321Z,22.63
2018-06-11T00:39:43.901Z,22.63
2018-06-11T00:40:15.481Z,22.62
2018-06-11T00:40:47.085Z,22.63
2018-06-11T00:41:18.692Z,22.61
2018-06-11T00:41:50.305Z,22.62
2018-06-11T00:42:21.894Z,22.62
2018-06-11T00:42:53.488Z,22.62
2018-06-11T00:43:25.060Z,22.62
2018-06-11T00:43:56.660Z,22.62
2018-06-11T00:44:28.296Z,22.62
2018-06-11T00:44:59.895Z,22.60
2018-06-11T00:45:31.477Z,22.60
2018-06-11T00:46:03.071Z,22.58
2018-06-11T00:46:34.661Z,22.60
2018-06-11T00:47:06.268Z,22.60
2018-06-11T00:47:37.850Z,22.60
2018-06-11T00:48:09.452Z,22.60
2018-06-11T00:48:41.041Z,22.60
2018-06-11T00:49:12.646Z,22.61
2018-06-11T00:49:44.254Z,22.60
2018-06-11T00:50:15.862Z,22.61
2018-06-11T00:50:47.494Z,22.59
2018-06-11T00:51:19.067Z,22.57
2018-06-11T00:51:50.649Z,22.59
2018-06-11T00:52:22.237Z,22.58
2018-06-11T00:52:53.871Z,22.57
2018-06-11T00:53:25.449Z,22.58
2018-06-11T00:53:57.057Z,22.56
2018-06-11T00:54:28.661Z,22.56
2018-06-11T00:55:00.244Z,22.56
2018-06-11T00:55:31.893Z,22.56
2018-06-11T00:56:03.488Z,22.55
2018-06-11T00:56:35.098Z,22.56
2018-06-11T00:57:06.685Z,22.56
2018-06-11T00:57:38.286Z,22.56
2018-06-11T00:58:09.866Z,22.56
2018-06-11T00:58:41.433Z,22.56
2018-06-11T00:59:13.000Z,22.56
2018-06-11T00:59:44.581Z,22.56
2018-06-11T01:00:16.161Z,22.56
2018-06-11T01:00:47.782Z,22.56
2018-06-11T01:01:19.361Z,22.56
2018-06-11T01:01:50.967Z,22.57
2018-06-11T01:02:22.573Z,22.57
2018-06-11T01:02:54.207Z,22.57
2018-06-11T01:03:25.810Z,22.58
2018-06-11T01:03:57.394Z,22.58
2018-06-11T01:04:28.988Z,22.58
2018-06-11T01:05:00.621Z,22.59
2018-06-11T01:05:32.209Z,22.59
2018-06-11T01:06:03.804Z,22.59
2018-06-11T01:06:35.376Z,22.59
2018-06-11T01:07:06.962Z,22.59
2018-06-11T01:07:38.552Z,22.62
2018-06-11T01:08:10.161Z,22.64
2018-06-11T01:08:41.756Z,22.65
2018-06-11T01:09:13.362Z,22.65
2018-06-11T01:09:44.941Z,22.64
2018-06-11T01:10:16.584Z,22.63
2018-06-11T01:10:48.170Z,22.62
2018-06-11T01:11:19.749Z,22.60
2018-06-11T01:11:51.520Z,22.59
2018-06-11T01:12:23.095Z,22.59
2018-06-11T01:12:54.664Z,22.58
2018-06-11T01:13:26.241Z,22.57
2018-06-11T01:13:57.812Z,22.55
2018-06-11T01:14:29.384Z,22.55
2018-06-11T01:15:00.974Z,22.54
2018-06-11T01:15:32.555Z,22.55
2018-06-11T01:16:04.129Z,22.54
2018-06-11T01:16:35.728Z,22.54
2018-06-11T01:17:07.358Z,22.53
2018-06-11T01:17:38.933Z,22.54
2018-06-11T01:18:10.542Z,22.57
2018-06-11T01:18:42.149Z,22.59
2018-06-11T01:19:13.753Z,22.60
2018-06-11T01:19:45.377Z,22.62
2018-06-11T01:20:16.944Z,22.63
2018-06-11T01:20:48.563Z,22.63
2018-06-11T01:21:20.136Z,22.62
2018-06-11T01:21:51.746Z,22.63
2018-06-11T01:22:23.341Z,22.62
2018-06-11T01:22:54.907Z,22.62
2018-06-11T01:23:26.513Z,22.59
2018-06-11T01:23:58.124Z,22.60
2018-06-11T01:24:29.709Z,22.59
2018-06-11T01:25:01.418Z,22.60
2018-06-11T01:25:33.006Z,22.59
2018-06-11T01:26:04.609Z,22.58
2018-06-11T01:26:36.381Z,22.59
2018-06-11T01:27:07.966Z,22.59
2018-06-11T01:27:39.562Z,22.58
2018-06-11T01:28:11.155Z,22.56
2018-06-11T01:28:42.764Z,22.52
2018-06-11T01:29:14.345Z,22.47
2018-06-11T01:29:45.949Z,22.43
2018-06-11T01:30:17.561Z,22.42
2018-06-11T01:30:49.165Z,22.40
2018-06-11T01:31:20.740Z,22.38
2018-06-11T01:31:52.362Z,22.36
2018-06-11T01:32:23.959Z,22.35
2018-06-11T01:32:55.541Z,22.35
2018-06-11T01:33:27.107Z,22.35
2018-06-11T01:33:58.708Z,22.35
2018-06-11T01:34:30.304Z,22.34
2018-06-11T01:35:01.886Z,22.35
2018-06-11T01:35:33.492Z,22.35
2018-06-11T01:36:05.098Z,22.35
2018-06-11T01:36:36.681Z,22.35
2018-06-11T01:37:08.296Z,22.34
2018-06-11T01:37:39.900Z,22.33
2018-06-11T01:38:11.485Z,22.30
2018-06-11T01:38:43.167Z,22.29
2018-06-11T01:39:14.755Z,22.29
2018-06-11T01:39:46.347Z,22.27
2018-06-11T01:40:17.924Z,22.30
2018-06-11T01:40:49.513Z,22.32
2018-06-11T01:41:21.084Z,22.34
2018-06-11T01:41:52.690Z,22.34
2018-06-11T01:42:24.304Z,22.35
2018-06-11T01:42:55.885Z,22.38
2018-06-11T01:43:27.469Z,22.41
2018-06-11T01:43:59.082Z,22.43
2018-06-11T01:44:30.661Z,22.43
2018-06-11T01:45:02.257Z,22.42
2018-06-11T01:45:33.845Z,22.43
2018-06-11T01:46:05.445Z,22.43
2018-06-11T01:46:37.040Z,22.42
2018-06-11T01:47:08.622Z,22.42
2018-06-11T01:47:40.212Z,22.42
2018-06-11T01:48:11.797Z,22.42
2018-06-11T01:48:43.363Z,22.42
2018-06-11T01:49:15.013Z,22.42
2018-06-11T01:49:46.584Z,22.42
2018-06-11T01:50:18.162Z,22.41
2018-06-11T01:50:49.741Z,22.45
2018-06-11T01:51:21.333Z,22.49
2018-06-11T01:51:52.941Z,22.46
2018-06-11T01:52:24.530Z,22.40
2018-06-11T01:52:56.096Z,22.33
2018-06-11T01:53:27.677Z,22.25
2018-06-11T01:53:59.261Z,22.22
2018-06-11T01:54:30.914Z,22.25
2018-06-11T01:55:02.585Z,22.31
2018-06-11T01:55:34.188Z,22.38
2018-06-11T01:56:05.769Z,22.45
2018-06-11T01:56:37.449Z,22.52
2018-06-11T01:57:09.043Z,22.58
2018-06-11T01:57:40.640Z,22.64
2018-06-11T01:58:12.216Z,22.69
2018-06-11T01:58:43.928Z,22.74
2018-06-11T01:59:15.514Z,22.76
2018-06-11T01:59:47.132Z,22.82
2018-06-11T02:00:18.733Z,22.85
2018-06-11T02:00:50.337Z,22.88
2018-06-11T02:01:21.918Z,22.91
2018-06-11T02:01:53.496Z,22.93
2018-06-11T02:02:25.097Z,22.95
2018-06-11T02:02:56.715Z,22.97
2018-06-11T02:03:28.324Z,22.98
2018-06-11T02:04:00.381Z,23.00
2018-06-11T02:04:31.985Z,23.01
2018-06-11T02:05:03.647Z,23.03
2018-06-11T02:05:35.221Z,23.03
2018-06-11T02:06:06.834Z,23.05
2018-06-11T02:06:38.468Z,23.03
2018-06-11T02:07:10.076Z,22.95
2018-06-11T02:07:41.681Z,23.06
2018-06-11T02:08:13.265Z,23.09
2018-06-11T02:08:44.874Z,23.10
2018-06-11T02:09:16.477Z,23.11
2018-06-11T02:09:48.061Z,23.12
2018-06-11T02:10:19.669Z,23.12
2018-06-11T02:10:51.257Z,23.11
2018-06-11T02:11:22.861Z,23.12
2018-06-11T02:11:54.489Z,23.12
2018-06-11T02:12:26.093Z,23.13
2018-06-11T02:12:57.701Z,23.14
2018-06-11T02:13:29.276Z,23.14
2018-06-11T02:14:00.890Z,23.14
2018-06-11T02:14:32.478Z,23.14
2018-06-11T02:15:04.070Z,23.14
2018-06-11T02:15:35.647Z,23.15
2018-06-11T02:16:07.284Z,23.16
2018-06-11T02:16:38.865Z,23.16
2018-06-11T02:17:10.453Z,23.18
2018-06-11T02:17:42.064Z,23.18
2018-06-11T02:18:13.669Z,23.19
2018-06-11T02:18:45.254Z,23.19
2018-06-11T02:19:16.823Z,23.20
2018-06-11T02:19:48.429Z,23.20
2018-06-11T02:20:20.014Z,23.19
2018-06-11T02:20:51.593Z,23.19
2018-06-11T02:21:23.200Z,23.20
2018-06-11T02:21:54.793Z,23.21
2018-06-11T02:22:26.393Z,23.21
2018-06-11T02:22:58.002Z,23.20
2018-06-11T02:23:29.589Z,23.20
2018-06-11T02:24:01.158Z,23.20
2018-06-11T02:24:32.767Z,23.20
2018-06-11T02:25:04.394Z,23.19
2018-06-11T02:25:35.991Z,23.20
2018-06-11T02:26:07.580Z,23.20
2018-06-11T02:26:39.176Z,23.20
2018-06-11T02:27:10.801Z,23.20
2018-06-11T02:27:42.432Z,23.19
2018-06-11T02:28:14.038Z,23.20
2018-06-11T02:28:45.621Z,23.20
2018-06-11T02:29:17.197Z,23.20
2018-06-11T02:29:48.845Z,23.21
2018-06-11T02:30:20.450Z,23.21
2018-06-11T02:30:52.035Z,23.21
2018-06-11T02:31:23.618Z,23.21
2018-06-11T02:31:55.201Z,23.23
2018-06-11T02:32:26.844Z,23.22
2018-06-11T02:32:58.425Z,23.25
2018-06-11T02:33:29.998Z,23.26
2018-06-11T02:34:01.591Z,23.27
2018-06-11T02:34:33.198Z,23.30
2018-06-11T02:35:04.796Z,23.33
2018-06-11T02:35:36.406Z,23.35
2018-06-11T02:36:08.017Z,23.35
2018-06-11T02:36:39.616Z,23.35
2018-06-11T02:37:11.227Z,23.35
2018-06-11T02:37:42.804Z,23.34
2018-06-11T02:38:14.381Z,23.34
2018-06-11T02:38:45.953Z,23.34
2018-06-11T02:39:17.528Z,23.33
2018-06-11T02:39:49.138Z,23.33
2018-06-11T02:40:20.734Z,23.33
2018-06-11T02:40:52.337Z,23.22
2018-06-11T02:41:23.935Z,23.32
2018-06-11T02:41:55.546Z,23.31
2018-06-11T02:42:27.187Z,23.32
2018-06-11T02:42:58.791Z,23.32
2018-06-11T02:43:30.423Z,23.31
2018-06-11T02:44:02.006Z,23.32
2018-06-11T02:44:33.613Z,23.32
2018-06-11T02:45:05.188Z,23.31
2018-06-11T02:45:36.770Z,23.31
2018-06-11T02:46:08.350Z,23.31
2018-06-11T02:46:39.958Z,23.29
2018-06-11T02:47:11.546Z,23.31
2018-06-11T02:47:43.130Z,23.31
2018-06-11T02:48:14.717Z,23.31
2018-06-11T02:48:46.346Z,23.32
2018-06-11T02:49:17.916Z,23.32
2018-06-11T02:49:49.488Z,23.32
2018-06-11T02:50:21.092Z,23.32
2018-06-11T02:50:52.672Z,23.32
2018-06-11T02:51:24.264Z,23.32
2018-06-11T02:51:55.872Z,23.33
2018-06-11T02:52:27.462Z,23.32
2018-06-11T02:52:59.044Z,23.32
2018-06-11T02:53:30.636Z,23.32
2018-06-11T02:54:02.252Z,23.33
2018-06-11T02:54:33.911Z,23.32
2018-06-11T02:55:05.498Z,23.30
2018-06-11T02:55:37.103Z,23.32
2018-06-11T02:56:08.703Z,23.32
2018-06-11T02:56:40.308Z,23.32
2018-06-11T02:57:11.918Z,23.32
2018-06-11T02:57:43.492Z,23.33
2018-06-11T02:58:15.068Z,23.30
2018-06-11T02:58:46.645Z,23.33
2018-06-11T02:59:18.230Z,23.32
2018-06-11T02:59:49.848Z,23.33
2018-06-11T03:00:21.450Z,23.33
2018-06-11T03:00:53.062Z,23.33
2018-06-11T03:01:24.675Z,23.33
2018-06-11T03:01:56.252Z,23.33
2018-06-11T03:02:27.821Z,23.33
2018-06-11T03:02:59.426Z,23.33
2018-06-11T03:03:31.014Z,23.31
2018-06-11T03:04:02.602Z,23.33
2018-06-11T03:04:34.177Z,23.34
2018-06-11T03:05:05.785Z,23.34
2018-06-11T03:05:37.391Z,23.33
2018-06-11T03:06:08.995Z,23.33
2018-06-11T03:06:40.572Z,23.33
2018-06-11T03:07:12.159Z,23.34
2018-06-11T03:07:43.765Z,23.34
2018-06-11T03:08:15.375Z,23.34
2018-06-11T03:08:47.035Z,23.34
2018-06-11T03:09:18.632Z,23.34
2018-06-11T03:09:50.226Z,23.34
2018-06-11T03:10:21.824Z,23.34
2018-06-11T03:10:53.406Z,23.35
2018-06-11T03:11:25.018Z,23.35
2018-06-11T03:11:56.610Z,23.36
2018-06-11T03:12:28.197Z,23.36
2018-06-11T03:12:59.790Z,23.37
2018-06-11T03:13:31.381Z,23.37
2018-06-11T03:14:03.016Z,23.36
2018-06-11T03:14:34.606Z,23.36
2018-06-11T03:15:06.176Z,23.37
2018-06-11T03:15:37.823Z,23.37
2018-06-11T03:16:09.389Z,23.37
2018-06-11T03:16:41.045Z,23.36
2018-06-11T03:17:12.657Z,23.36
2018-06-11T03:17:44.276Z,23.36
2018-06-11T03:18:15.926Z,23.36
2018-06-11T03:18:47.524Z,23.36
2018-06-11T03:19:19.133Z,23.35
2018-06-11T03:19:50.718Z,23.36
2018-06-11T03:20:22.307Z,23.35
2018-06-11T03:20:53.916Z,23.35
2018-06-11T03:21:25.501Z,23.35
2018-06-11T03:21:57.085Z,23.35
2018-06-11T03:22:28.676Z,23.35
2018-06-11T03:23:00.285Z,23.36
2018-06-11T03:23:31.917Z,23.36
2018-06-11T03:24:03.502Z,23.36
2018-06-11T03:24:35.097Z,23.37
2018-06-11T03:25:06.697Z,23.37
2018-06-11T03:25:38.282Z,23.37
2018-06-11T03:26:09.876Z,23.35
2018-06-11T03:26:41.482Z,23.38
2018-06-11T03:27:13.070Z,23.37
2018-06-11T03:27:44.667Z,23.38
2018-06-11T03:28:16.255Z,23.38
2018-06-11T03:28:47.906Z,23.38
2018-06-11T03:29:19.508Z,23.38
2018-06-11T03:29:51.103Z,23.39
2018-06-11T03:30:22.700Z,23.39
2018-06-11T03:30:54.310Z,23.39
2018-06-11T03:31:25.884Z,23.39
2018-06-11T03:31:57.487Z,23.39
2018-06-11T03:32:29.097Z,23.38
2018-06-11T03:33:00.702Z,23.39
2018-06-11T03:33:32.293Z,23.38
2018-06-11T03:34:03.910Z,23.39
2018-06-11T03:34:35.513Z,23.38
2018-06-11T03:35:07.114Z,23.39
2018-06-11T03:35:38.699Z,23.38
2018-06-11T03:36:10.306Z,23.39
2018-06-11T03:36:41.885Z,23.38
2018-06-11T03:37:13.452Z,23.38
2018-06-11T03:37:45.021Z,23.38
2018-06-11T03:38:16.611Z,23.39
2018-06-11T03:38:48.265Z,23.39
2018-06-11T03:39:19.850Z,23.38
2018-06-11T03:39:51.420Z,23.38
2018-06-11T03:40:23.010Z,23.38
2018-06-11T03:40:54.590Z,23.38
2018-06-11T03:41:26.170Z,23.37
2018-06-11T03:41:57.786Z,23.38
2018-06-11T03:42:29.370Z,23.39
2018-06-11T03:43:00.936Z,23.39
2018-06-11T03:43:32.527Z,23.39
2018-06-11T03:44:04.158Z,23.40
2018-06-11T03:44:35.766Z,23.39
2018-06-11T03:45:07.349Z,23.40
2018-06-11T03:45:38.991Z,23.40
2018-06-11T03:46:10.577Z,23.40
2018-06-11T03:46:42.162Z,23.40
2018-06-11T03:47:13.766Z,23.41
2018-06-11T03:47:45.346Z,23.41
2018-06-11T03:48:16.948Z,23.41
2018-06-11T03:48:48.597Z,23.42
2018-06-11T03:49:20.178Z,23.42
2018-06-11T03:49:51.837Z,23.42
2018-06-11T03:50:23.416Z,23.42
2018-06-11T03:50:55.062Z,23.42
2018-06-11T03:51:26.650Z,23.42
2018-06-11T03:51:58.222Z,23.42
2018-06-11T03:52:29.816Z,23.40
2018-06-11T03:53:01.402Z,23.42
2018-06-11T03:53:32.967Z,23.42
2018-06-11T03:54:04.549Z,23.42
2018-06-11T03:54:36.130Z,23.42
2018-06-11T03:55:07.714Z,23.42
2018-06-11T03:55:39.322Z,23.42
2018-06-11T03:56:10.934Z,23.42
2018-06-11T03:56:42.518Z,23.42
2018-06-11T03:57:14.116Z,23.43
2018-06-11T03:57:45.701Z,23.42
2018-06-11T03:58:17.301Z,23.44
2018-06-11T03:58:48.889Z,23.45
2018-06-11T03:59:20.494Z,23.45
2018-06-11T03:59:52.129Z,23.45
2018-06-11T04:00:23.719Z,23.45
2018-06-11T04:00:55.304Z,23.45
2018-06-11T04:01:26.892Z,23.45
2018-06-11T04:01:58.502Z,23.45
2018-06-11T04:02:30.114Z,23.45
2018-06-11T04:03:01.693Z,23.45
2018-06-11T04:03:33.274Z,23.44
2018-06-11T04:04:04.882Z,23.44
2018-06-11T04:04:36.494Z,23.44
2018-06-11T04:05:08.145Z,23.45
2018-06-11T04:05:40.013Z,23.44
2018-06-11T04:06:11.617Z,23.44
2018-06-11T04:06:43.206Z,23.44
2018-06-11T04:07:14.789Z,23.43
2018-06-11T04:07:47.205Z,23.43
2018-06-11T04:08:18.872Z,23.43
2018-06-11T04:08:50.960Z,23.43
2018-06-11T04:09:22.538Z,23.43
2018-06-11T04:09:54.167Z,23.43
2018-06-11T04:10:25.753Z,23.42
2018-06-11T04:10:57.428Z,23.43
2018-06-11T04:11:28.983Z,23.43
2018-06-11T04:12:00.569Z,23.43
2018-06-11T04:12:32.146Z,23.43
2018-06-11T04:13:03.720Z,23.43
2018-06-11T04:13:35.361Z,23.43
2018-06-11T04:14:06.959Z,23.43
2018-06-11T04:14:38.545Z,23.43
2018-06-11T04:15:10.130Z,23.43
2018-06-11T04:15:41.727Z,23.43
2018-06-11T04:16:13.304Z,23.43
2018-06-11T04:16:44.896Z,23.43
2018-06-11T04:17:16.506Z,23.44
2018-06-11T04:17:48.094Z,23.43
2018-06-11T04:18:19.698Z,23.43
2018-06-11T04:18:51.293Z,23.43
2018-06-11T04:19:22.879Z,23.42
2018-06-11T04:19:54.476Z,23.43
2018-06-11T04:20:26.081Z,23.43
2018-06-11T04:20:57.685Z,23.43
2018-06-11T04:21:29.269Z,23.43
2018-06-11T04:22:00.912Z,23.43
2018-06-11T04:22:32.497Z,23.44
2018-06-11T04:23:04.088Z,23.44
2018-06-11T04:23:35.693Z,23.46
2018-06-11T04:24:07.271Z,23.47
2018-06-11T04:24:38.881Z,23.47
2018-06-11T04:25:10.512Z,23.48
2018-06-11T04:25:42.117Z,23.49
2018-06-11T04:26:13.730Z,23.48
2018-06-11T04:26:45.338Z,23.49
2018-06-11T04:27:16.981Z,23.48
2018-06-11T04:27:48.562Z,23.48
2018-06-11T04:28:20.145Z,23.47
2018-06-11T04:28:51.726Z,23.47
2018-06-11T04:29:23.306Z,23.48
2018-06-11T04:29:54.885Z,23.48
2018-06-11T04:30:26.472Z,23.48
2018-06-11T04:30:58.074Z,23.48
2018-06-11T04:31:29.668Z,23.48
2018-06-11T04:32:01.249Z,23.48
2018-06-11T04:32:32.859Z,23.48
2018-06-11T04:33:04.432Z,23.47
2018-06-11T04:33:36.033Z,23.47
2018-06-11T04:34:07.646Z,23.48
2018-06-11T04:34:39.283Z,23.47
2018-06-11T04:35:10.880Z,23.48
2018-06-11T04:35:42.462Z,23.50
2018-06-11T04:36:14.050Z,23.55
2018-06-11T04:36:45.658Z,23.63
2018-06-11T04:37:17.295Z,23.65
2018-06-11T04:37:48.901Z,23.65
2018-06-11T04:38:20.524Z,23.64
2018-06-11T04:38:52.099Z,23.63
2018-06-11T04:39:23.704Z,23.68
2018-06-11T04:39:55.285Z,23.83
2018-06-11T04:40:26.895Z,24.16
2018-06-11T04:40:58.493Z,24.51
2018-06-11T04:41:30.064Z,24.80
2018-06-11T04:42:01.655Z,25.03
2018-06-11T04:42:33.253Z,25.23
2018-06-11T04:43:04.832Z,25.44
2018-06-11T04:43:36.476Z,25.63
2018-06-11T04:44:08.056Z,25.81
2018-06-11T04:44:39.660Z,25.93
2018-06-11T04:45:11.349Z,26.00
2018-06-11T04:45:42.934Z,26.02
2018-06-11T04:46:14.542Z,26.01
2018-06-11T04:46:46.129Z,26.07
2018-06-11T04:47:17.733Z,26.13
2018-06-11T04:47:49.322Z,26.10
2018-06-11T04:48:20.909Z,25.80
2018-06-11T04:48:52.518Z,25.53
2018-06-11T04:49:24.123Z,25.25
2018-06-11T04:49:55.715Z,24.98
2018-06-11T04:50:27.305Z,24.73
2018-06-11T04:50:58.886Z,24.55
2018-06-11T04:51:30.473Z,24.40
2018-06-11T04:52:02.090Z,24.35
2018-06-11T04:52:33.664Z,24.26
2018-06-11T04:53:05.241Z,24.15
2018-06-11T04:53:36.851Z,24.06
2018-06-11T04:54:08.430Z,23.97
2018-06-11T04:54:40.018Z,23.93
2018-06-11T04:55:11.633Z,23.88
2018-06-11T04:55:43.222Z,23.84
2018-06-11T04:56:14.800Z,23.81
2018-06-11T04:56:46.380Z,23.78
2018-06-11T04:57:17.961Z,23.77
2018-06-11T04:57:49.549Z,23.76
2018-06-11T04:58:21.193Z,23.75
2018-06-11T04:58:52.788Z,23.75
2018-06-11T04:59:24.389Z,23.77
2018-06-11T04:59:55.996Z,23.78
2018-06-11T05:00:27.567Z,23.78
2018-06-11T05:00:59.169Z,23.79
2018-06-11T05:01:30.781Z,23.84
2018-06-11T05:02:02.362Z,23.87
2018-06-11T05:02:33.972Z,23.86
2018-06-11T05:03:05.582Z,23.86
2018-06-11T05:03:37.191Z,23.84
2018-06-11T05:04:08.801Z,23.80
2018-06-11T05:04:40.409Z,23.79
2018-06-11T05:05:12.040Z,23.78
2018-06-11T05:05:43.645Z,23.77
2018-06-11T05:06:15.253Z,23.77
2018-06-11T05:06:46.866Z,23.78
2018-06-11T05:07:18.473Z,23.79
2018-06-11T05:07:50.113Z,23.79
2018-06-11T05:08:21.681Z,23.78
2018-06-11T05:08:53.286Z,23.78
2018-06-11T05:09:24.883Z,23.77
2018-06-11T05:09:56.470Z,23.79
2018-06-11T05:10:28.053Z,23.79
2018-06-11T05:10:59.630Z,23.78
2018-06-11T05:11:31.208Z,23.80
2018-06-11T05:12:02.810Z,23.81
2018-06-11T05:12:34.418Z,23.85
2018-06-11T05:13:06.045Z,23.87
2018-06-11T05:13:37.612Z,23.88
2018-06-11T05:14:09.204Z,23.84
2018-06-11T05:14:40.778Z,23.84
2018-06-11T05:15:12.368Z,23.82
2018-06-11T05:15:43.963Z,23.81
2018-06-11T05:16:15.541Z,23.79
2018-06-11T05:16:47.134Z,23.78
2018-06-11T05:17:18.768Z,23.78
2018-06-11T05:17:50.377Z,23.77
2018-06-11T05:18:21.986Z,23.76
2018-06-11T05:18:53.573Z,23.76
2018-06-11T05:19:25.173Z,23.77
2018-06-11T05:19:56.777Z,23.75
2018-06-11T05:20:28.350Z,23.74
2018-06-11T05:20:59.957Z,23.75
2018-06-11T05:21:31.541Z,23.74
2018-06-11T05:22:03.143Z,23.73
2018-06-11T05:22:34.789Z,23.72
2018-06-11T05:23:06.393Z,23.74
2018-06-11T05:23:37.978Z,23.75
2018-06-11T05:24:09.561Z,23.75
2018-06-11T05:24:41.170Z,23.75
2018-06-11T05:25:12.768Z,23.75
2018-06-11T05:25:44.374Z,23.67
2018-06-11T05:26:15.959Z,23.75
2018-06-11T05:26:47.586Z,23.75
2018-06-11T05:27:19.192Z,23.75
2018-06-11T05:27:50.841Z,23.68
2018-06-11T05:28:22.436Z,23.75
2018-06-11T05:28:54.008Z,23.75
2018-06-11T05:29:25.589Z,23.75
2018-06-11T05:29:57.169Z,23.75
2018-06-11T05:30:28.760Z,23.75
2018-06-11T05:31:00.365Z,23.77
2018-06-11T05:31:31.978Z,23.78
2018-06-11T05:32:03.625Z,23.78
2018-06-11T05:32:35.200Z,23.79
2018-06-11T05:33:06.790Z,23.81
2018-06-11T05:33:38.369Z,23.81
2018-06-11T05:34:09.957Z,23.81
2018-06-11T05:34:41.582Z,23.81
2018-06-11T05:35:13.207Z,23.83
2018-06-11T05:35:44.797Z,23.83
2018-06-11T05:36:16.403Z,23.85
2018-06-11T05:36:47.981Z,23.86
2018-06-11T05:37:19.601Z,23.86
2018-06-11T05:37:51.182Z,23.86
2018-06-11T05:38:22.782Z,23.86
2018-06-11T05:38:54.398Z,23.85
2018-06-11T05:39:26.050Z,23.84
2018-06-11T05:39:57.648Z,23.85
2018-06-11T05:40:29.255Z,23.84
2018-06-11T05:41:00.841Z,23.86
2018-06-11T05:41:32.456Z,23.85
2018-06-11T05:42:04.043Z,23.85
2018-06-11T05:42:35.629Z,23.85
2018-06-11T05:43:07.269Z,23.85
2018-06-11T05:43:38.857Z,23.86
2018-06-11T05:44:10.493Z,23.86
2018-06-11T05:44:42.082Z,23.87
2018-06-11T05:45:13.666Z,23.86
2018-06-11T05:45:45.270Z,23.85
2018-06-11T05:46:16.877Z,23.82
2018-06-11T05:46:48.486Z,23.85
2018-06-11T05:47:20.098Z,23.85
2018-06-11T05:47:51.682Z,23.85
2018-06-11T05:48:23.279Z,23.86
2018-06-11T05:48:54.853Z,23.86
2018-06-11T05:49:26.434Z,23.86
2018-06-11T05:49:58.023Z,23.86
2018-06-11T05:50:29.606Z,23.86
2018-06-11T05:51:01.223Z,23.86
2018-06-11T05:51:32.820Z,23.85
2018-06-11T05:52:04.417Z,23.84
2018-06-11T05:52:35.984Z,23.84
2018-06-11T05:53:07.552Z,23.83
2018-06-11T05:53:39.202Z,23.81
2018-06-11T05:54:10.820Z,23.81
2018-06-11T05:54:42.413Z,23.80
2018-06-11T05:55:13.992Z,23.80
2018-06-11T05:55:45.580Z,23.78
2018-06-11T05:56:17.175Z,23.78
2018-06-11T05:56:48.762Z,23.78
2018-06-11T05:57:20.378Z,23.77
2018-06-11T05:57:51.959Z,23.77
2018-06-11T05:58:23.564Z,23.77
2018-06-11T05:58:55.142Z,23.76
2018-06-11T05:59:26.805Z,23.76
2018-06-11T05:59:58.385Z,23.74
2018-06-11T06:00:29.990Z,23.76
2018-06-11T06:01:01.593Z,23.76
2018-06-11T06:01:33.192Z,23.76
2018-06-11T06:02:04.777Z,23.76
2018-06-11T06:02:36.371Z,23.76
2018-06-11T06:03:07.958Z,23.76
2018-06-11T06:03:39.562Z,23.76
2018-06-11T06:04:11.146Z,23.76
2018-06-11T06:04:42.767Z,23.75
2018-06-11T06:05:14.362Z,23.75
2018-06-11T06:05:45.937Z,23.75
2018-06-11T06:06:17.528Z,23.75
2018-06-11T06:06:49.214Z,23.74
2018-06-11T06:07:20.817Z,23.74
2018-06-11T06:07:52.411Z,23.74
2018-06-11T06:08:23.988Z,23.74
2018-06-11T06:08:55.613Z,23.74
2018-06-11T06:09:27.185Z,23.74
2018-06-11T06:09:58.825Z,23.74
2018-06-11T06:10:30.434Z,23.74
2018-06-11T06:11:02.011Z,23.72
2018-06-11T06:11:33.590Z,23.74
2018-06-11T06:12:05.156Z,23.74
2018-06-11T06:12:36.757Z,23.74
2018-06-11T06:13:08.360Z,23.74
2018-06-11T06:13:39.965Z,23.74
2018-06-11T06:14:11.560Z,23.73
2018-06-11T06:14:43.165Z,23.75
2018-06-11T06:15:14.818Z,23.74
2018-06-11T06:15:46.416Z,23.74
2018-06-11T06:16:18.025Z,23.72
2018-06-11T06:16:49.649Z,23.73
2018-06-11T06:17:21.258Z,23.73
2018-06-11T06:17:52.865Z,23.72
2018-06-11T06:18:24.440Z,23.73
2018-06-11T06:18:56.048Z,23.73
2018-06-11T06:19:27.621Z,23.71
2018-06-11T06:19:59.211Z,23.72
2018-06-11T06:20:30.809Z,23.73
2018-06-11T06:21:02.417Z,23.73
2018-06-11T06:21:34.042Z,23.74
2018-06-11T06:22:05.621Z,23.75
2018-06-11T06:22:37.202Z,23.75
2018-06-11T06:23:08.785Z,23.75
2018-06-11T06:23:40.376Z,23.75
2018-06-11T06:24:11.987Z,23.75
2018-06-11T06:24:43.578Z,23.76
2018-06-11T06:25:15.157Z,23.76
2018-06-11T06:25:46.757Z,23.77
2018-06-11T06:26:18.342Z,23.77
2018-06-11T06:26:49.989Z,23.79
2018-06-11T06:27:21.598Z,23.79
2018-06-11T06:27:54.234Z,23.80
2018-06-11T06:28:25.846Z,23.80
2018-06-11T06:28:57.434Z,23.87
2018-06-11T06:29:29.013Z,23.90
2018-06-11T06:30:00.602Z,23.86
2018-06-11T06:30:32.176Z,23.76
2018-06-11T06:31:03.776Z,23.67
2018-06-11T06:31:35.388Z,23.58
2018-06-11T06:32:06.989Z,23.48
2018-06-11T06:32:38.595Z,23.42
2018-06-11T06:33:10.236Z,23.34
2018-06-11T06:33:41.820Z,23.26
2018-06-11T06:34:13.484Z,23.18
2018-06-11T06:34:45.119Z,23.07
2018-06-11T06:35:16.670Z,23.01
2018-06-11T06:35:48.281Z,23.01
2018-06-11T06:36:19.860Z,23.01
2018-06-11T06:36:51.428Z,23.01
2018-06-11T06:37:23.034Z,23.01
2018-06-11T06:37:54.641Z,22.99
2018-06-11T06:38:26.277Z,23.00
2018-06-11T06:38:57.884Z,22.99
2018-06-11T06:39:29.531Z,22.97
2018-06-11T06:40:01.173Z,22.96
2018-06-11T06:40:32.807Z,22.95
2018-06-11T06:41:04.417Z,22.94
2018-06-11T06:41:36.029Z,22.94
2018-06-11T06:42:07.642Z,22.94
2018-06-11T06:42:39.254Z,22.95
2018-06-11T06:43:10.983Z,22.95
2018-06-11T06:43:42.593Z,22.95
2018-06-11T06:44:14.198Z,22.93
2018-06-11T06:44:45.805Z,22.93
2018-06-11T06:45:17.413Z,22.92
2018-06-11T06:45:48.997Z,22.90
2018-06-11T06:46:20.573Z,22.89
2018-06-11T06:46:52.149Z,22.88